createdAt,value
2019-03-13T00:00:44.599Z,57.16
2019-03-13T00:03:20.970Z,58.02
2019-03-13T00:05:54.798Z,64.44
2019-03-13T00:08:30.960Z,68.47
2019-03-13T00:11:06.646Z,70.36
2019-03-13T00:13:40.353Z,72.40
2019-03-13T00:16:18.226Z,72.96
2019-03-13T00:18:51.866Z,74.06
2019-03-13T00:21:25.610Z,74.52
2019-03-13T00:23:59.320Z,74.71
2019-03-13T00:26:33.068Z,75.31
2019-03-13T00:29:06.823Z,75.40
2019-03-13T00:31:42.562Z,76.39
2019-03-13T00:34:16.368Z,75.63
2019-03-13T00:36:50.459Z,75.58
2019-03-13T00:39:24.270Z,75.76
2019-03-13T00:41:59.950Z,75.81
2019-03-13T00:44:38.003Z,76.17
2019-03-13T00:47:12.175Z,75.35
2019-03-13T00:49:46.237Z,75.33
2019-03-13T00:52:21.261Z,75.17
2019-03-13T00:54:54.909Z,75.61
2019-03-13T00:57:29.791Z,75.35
2019-03-13T01:00:03.605Z,75.01
2019-03-13T01:02:39.526Z,74.90
2019-03-13T01:05:21.327Z,74.98
2019-03-13T01:07:57.274Z,75.37
2019-03-13T01:10:33.140Z,74.72
2019-03-13T01:13:06.992Z,74.62
2019-03-13T01:15:42.184Z,74.52
2019-03-13T01:18:16.097Z,74.68
2019-03-13T01:20:50.147Z,73.36
2019-03-13T01:23:24.930Z,73.62
2019-03-13T01:26:01.506Z,73.98
2019-03-13T01:28:35.286Z,74.24
2019-03-13T01:31:36.646Z,74.19
2019-03-13T01:34:32.763Z,73.46
2019-03-13T01:37:06.571Z,73.58
2019-03-13T01:39:40.332Z,73.59
2019-03-13T01:42:14.276Z,73.09
2019-03-13T01:44:49.063Z,73.24
2019-03-13T01:47:24.564Z,72.51
2019-03-13T01:49:58.273Z,72.96
2019-03-13T01:52:32.424Z,73.83
2019-03-13T01:55:06.722Z,73.35
2019-03-13T01:57:43.009Z,72.88
2019-03-13T02:00:18.931Z,71.62
2019-03-13T02:02:54.801Z,70.84
2019-03-13T02:05:30.940Z,70.75
2019-03-13T02:08:04.994Z,70.98
2019-03-13T02:10:39.783Z,71.12
2019-03-13T02:13:14.282Z,70.25
2019-03-13T02:15:48.559Z,69.60
2019-03-13T02:18:26.322Z,69.41
2019-03-13T02:21:07.697Z,69.13
2019-03-13T02:23:42.705Z,69.26
2019-03-13T02:26:17.983Z,68.56
2019-03-13T02:28:52.094Z,67.99
2019-03-13T02:31:25.972Z,68.04
2019-03-13T02:34:00.077Z,68.21
2019-03-13T02:36:34.195Z,68.07
2019-03-13T02:39:09.624Z,67.78
2019-03-13T02:41:43.555Z,68.01
2019-03-13T02:44:18.441Z,68.26
2019-03-13T02:46:52.310Z,68.41
2019-03-13T02:49:26.474Z,68.50
2019-03-13T02:52:00.258Z,68.24
2019-03-13T02:54:33.963Z,68.31
2019-03-13T02:57:07.711Z,68.68
2019-03-13T02:59:42.292Z,68.59
2019-03-13T03:02:33.703Z,69.08
2019-03-13T03:05:08.174Z,68.81
2019-03-13T03:07:42.043Z,68.97
2019-03-13T03:10:15.883Z,68.76
2019-03-13T03:12:49.506Z,69.24
2019-03-13T03:15:23.364Z,69.49
2019-03-13T03:17:59.404Z,70.09
2019-03-13T03:20:37.935Z,70.09
2019-03-13T03:23:11.723Z,70.42
2019-03-13T03:25:46.942Z,70.33
2019-03-13T03:28:22.862Z,70.29
2019-03-13T03:30:56.782Z,70.75
2019-03-13T03:33:30.545Z,70.88
2019-03-13T03:36:05.279Z,70.96
2019-03-13T03:38:45.303Z,71.47
2019-03-13T03:41:18.977Z,71.84
2019-03-13T03:43:54.195Z,72.16
2019-03-13T03:46:28.019Z,72.56
2019-03-13T03:49:02.089Z,72.73
2019-03-13T03:51:35.795Z,73.03
2019-03-13T03:54:09.511Z,73.41
2019-03-13T03:56:44.997Z,73.22
2019-03-13T03:59:18.844Z,73.39
2019-03-13T04:01:52.582Z,73.52
2019-03-13T04:04:26.376Z,73.52
2019-03-13T04:07:00.104Z,73.41
2019-03-13T04:09:35.645Z,73.43
2019-03-13T04:12:09.484Z,73.48
2019-03-13T04:14:45.093Z,72.97
2019-03-13T04:17:19.930Z,73.29
2019-03-13T04:19:53.860Z,72.94
2019-03-13T04:22:28.788Z,72.97
2019-03-13T04:25:38.465Z,73.10
2019-03-13T04:28:12.524Z,72.70
2019-03-13T04:30:46.609Z,72.27
2019-03-13T04:33:20.535Z,72.25
2019-03-13T04:35:54.269Z,71.86
2019-03-13T04:38:28.032Z,71.80
2019-03-13T04:41:02.136Z,71.42
2019-03-13T04:43:35.861Z,71.51
2019-03-13T04:46:09.462Z,71.65
2019-03-13T04:48:43.127Z,70.75
2019-03-13T04:51:16.943Z,70.57
2019-03-13T04:53:51.914Z,70.68
2019-03-13T04:56:26.660Z,70.38
2019-03-13T04:59:01.427Z,70.50
2019-03-13T05:01:38.348Z,70.27
2019-03-13T05:04:13.763Z,70.07
2019-03-13T05:06:47.374Z,70.27
2019-03-13T05:09:39.112Z,69.85
2019-03-13T05:12:12.893Z,69.88
2019-03-13T05:14:46.786Z,70.02
2019-03-13T05:17:23.660Z,69.69
2019-03-13T05:19:58.513Z,69.64
2019-03-13T05:22:34.496Z,70.09
2019-03-13T05:25:09.535Z,69.44
2019-03-13T05:27:43.372Z,69.48
2019-03-13T05:30:19.295Z,69.32
2019-03-13T05:32:53.118Z,68.76
2019-03-13T05:35:26.917Z,68.48
2019-03-13T05:38:01.082Z,68.39
2019-03-13T05:40:35.349Z,68.05
2019-03-13T05:43:09.495Z,67.96
2019-03-13T05:45:44.428Z,67.27
2019-03-13T05:48:19.943Z,67.43
2019-03-13T05:50:55.838Z,66.75
2019-03-13T05:53:30.996Z,67.02
2019-03-13T05:56:07.835Z,66.84
2019-03-13T05:58:41.795Z,66.30
2019-03-13T06:01:17.852Z,66.17
2019-03-13T06:03:53.082Z,65.95
2019-03-13T06:06:28.722Z,65.97
2019-03-13T06:09:03.129Z,65.95
2019-03-13T06:11:37.316Z,65.69
2019-03-13T06:14:11.185Z,65.33
2019-03-13T06:16:45.019Z,65.02
2019-03-13T06:19:19.781Z,65.26
2019-03-13T06:21:54.795Z,65.66
2019-03-13T06:24:28.423Z,65.31
2019-03-13T06:27:02.257Z,65.65
2019-03-13T06:29:36.017Z,65.50
2019-03-13T06:32:11.667Z,65.50
2019-03-13T06:34:45.332Z,65.78
2019-03-13T06:37:19.149Z,65.21
2019-03-13T06:39:52.915Z,65.04
2019-03-13T06:42:27.127Z,65.33
2019-03-13T06:45:01.225Z,65.09
2019-03-13T06:47:35.074Z,65.12
2019-03-13T06:50:13.376Z,65.29
2019-03-13T06:52:48.244Z,65.61
2019-03-13T06:55:21.995Z,65.44
2019-03-13T06:57:58.033Z,65.74
2019-03-13T07:00:58.959Z,65.48
2019-03-13T07:04:04.603Z,65.60
2019-03-13T07:06:59.172Z,65.40
2019-03-13T07:09:55.189Z,65.52
2019-03-13T07:12:51.614Z,65.02
2019-03-13T07:16:02.467Z,65.32
2019-03-13T07:18:42.003Z,65.28
2019-03-13T07:21:39.346Z,64.96
2019-03-13T07:24:27.789Z,65.15
2019-03-13T07:27:14.290Z,65.22
2019-03-13T07:30:03.036Z,65.37
2019-03-13T07:32:58.537Z,65.10
2019-03-13T07:35:58.524Z,65.19
2019-03-13T07:38:56.824Z,65.09
2019-03-13T07:41:47.808Z,65.42
2019-03-13T07:44:48.434Z,64.77
2019-03-13T07:47:45.878Z,64.61
2019-03-13T07:50:35.545Z,64.09
2019-03-13T07:53:25.027Z,64.36
2019-03-13T07:56:17.848Z,64.51
2019-03-13T07:59:13.864Z,64.04
2019-03-13T08:02:13.869Z,63.67
2019-03-13T08:05:05.387Z,63.53
2019-03-13T08:07:49.223Z,63.75
2019-03-13T08:10:51.168Z,63.29
2019-03-13T08:13:42.371Z,60.61
2019-03-13T08:16:41.156Z,61.57
2019-03-13T08:19:28.161Z,60.48
2019-03-13T08:22:29.802Z,58.87
2019-03-13T08:25:11.391Z,57.94
2019-03-13T08:28:19.172Z,56.77
2019-03-13T08:31:17.540Z,57.98
2019-03-13T08:34:13.145Z,60.05
2019-03-13T08:37:17.651Z,60.11
2019-03-13T08:40:10.400Z,59.80
2019-03-13T08:43:03.028Z,59.66
2019-03-13T08:45:53.416Z,54.93
2019-03-13T08:48:57.308Z,55.84
2019-03-13T08:55:11.545Z,59.32
2019-03-13T08:58:04.590Z,60.58
2019-03-13T09:00:44.437Z,60.50
2019-03-13T09:03:42.807Z,60.17
2019-03-13T09:06:45.573Z,59.76
2019-03-13T09:09:39.129Z,59.79
2019-03-13T09:12:40.878Z,59.64
2019-03-13T09:15:31.978Z,59.65
2019-03-13T09:18:27.483Z,60.83
2019-03-13T09:21:18.910Z,61.96
2019-03-13T09:24:20.993Z,61.77
2019-03-13T09:27:19.415Z,61.35
2019-03-13T09:30:15.450Z,60.84
2019-03-13T09:33:26.380Z,60.89
2019-03-13T09:36:34.776Z,60.63
2019-03-13T09:39:24.452Z,60.65
2019-03-13T09:42:20.393Z,60.33
2019-03-13T09:45:20.981Z,60.60
2019-03-13T09:48:03.896Z,61.28
2019-03-13T09:50:44.577Z,61.59
2019-03-13T09:53:37.297Z,60.53
2019-03-13T09:56:34.742Z,60.06
2019-03-13T09:59:42.375Z,60.30
2019-03-13T10:02:23.293Z,60.18
2019-03-13T10:05:28.110Z,60.21
2019-03-13T10:08:25.455Z,60.06
2019-03-13T10:11:11.027Z,60.49
2019-03-13T10:14:06.586Z,60.03
2019-03-13T10:17:09.830Z,60.56
2019-03-13T10:20:07.566Z,60.52
2019-03-13T10:23:03.788Z,60.86
2019-03-13T10:26:05.967Z,60.71
2019-03-13T10:29:01.955Z,60.89
2019-03-13T10:31:57.463Z,61.28
2019-03-13T10:34:48.768Z,61.54
2019-03-13T10:37:40.795Z,61.14
2019-03-13T10:40:39.625Z,61.25
2019-03-13T10:43:35.584Z,61.49
2019-03-13T10:46:29.251Z,61.55
2019-03-13T10:49:22.181Z,62.18
2019-03-13T10:52:08.985Z,62.57
2019-03-13T10:55:00.179Z,62.98
2019-03-13T10:57:55.899Z,63.39
2019-03-13T11:00:48.651Z,63.30
2019-03-13T11:03:33.908Z,63.81
2019-03-13T11:06:54.045Z,63.70
2019-03-13T11:09:36.115Z,63.31
2019-03-13T11:12:17.569Z,63.57
2019-03-13T11:15:10.072Z,63.21
2019-03-13T11:18:03.879Z,63.19
2019-03-13T11:21:13.681Z,62.84
2019-03-13T11:24:15.323Z,62.26
2019-03-13T11:30:04.893Z,62.10
2019-03-13T11:32:57.636Z,62.08
2019-03-13T11:35:50.933Z,61.63
2019-03-13T11:38:46.491Z,60.77
2019-03-13T11:41:39.044Z,60.74
2019-03-13T11:44:30.541Z,59.01
2019-03-13T11:47:12.633Z,58.92
2019-03-13T11:50:00.430Z,58.38
2019-03-13T11:52:55.872Z,57.85
2019-03-13T11:55:38.164Z,57.80
2019-03-13T11:58:20.463Z,58.58
2019-03-13T12:01:19.242Z,62.93
2019-03-13T12:04:13.093Z,63.91
2019-03-13T12:07:03.186Z,65.79
2019-03-13T12:09:49.169Z,67.21
2019-03-13T12:12:41.914Z,66.89
2019-03-13T12:15:26.667Z,67.01
2019-03-13T12:18:28.166Z,67.77
2019-03-13T12:21:16.872Z,67.81
2019-03-13T12:24:15.634Z,68.43
2019-03-13T12:26:56.818Z,68.15
2019-03-13T12:29:48.114Z,69.26
2019-03-13T12:32:44.024Z,69.17
2019-03-13T12:35:36.765Z,68.05
2019-03-13T12:38:21.217Z,67.51
2019-03-13T12:41:12.425Z,67.59
2019-03-13T12:47:19.084Z,67.02
2019-03-13T12:50:13.767Z,67.48
2019-03-13T12:53:09.576Z,67.55
2019-03-13T12:56:17.359Z,67.39
2019-03-13T12:58:57.512Z,66.92
2019-03-13T13:02:02.332Z,66.96
2019-03-13T13:04:57.935Z,66.29
2019-03-13T13:07:49.342Z,66.71
2019-03-13T13:10:40.453Z,67.15
2019-03-13T13:13:36.560Z,66.76
2019-03-13T13:16:38.718Z,66.82
2019-03-13T13:19:12.804Z,66.87
2019-03-13T13:21:46.875Z,66.70
2019-03-13T13:24:21.918Z,67.19
2019-03-13T13:26:55.920Z,66.56
2019-03-13T13:29:29.902Z,65.39
2019-03-13T13:32:05.457Z,65.13
2019-03-13T13:34:39.082Z,65.15
2019-03-13T13:37:12.698Z,64.07
2019-03-13T13:39:47.919Z,64.03
2019-03-13T13:42:23.690Z,64.70
2019-03-13T13:44:57.458Z,64.07
2019-03-13T13:47:32.980Z,64.72
2019-03-13T13:50:08.043Z,65.27
2019-03-13T13:52:42.975Z,65.39
2019-03-13T13:55:17.097Z,65.30
2019-03-13T13:57:52.293Z,65.87
2019-03-13T14:00:26.044Z,65.66
2019-03-13T14:02:59.990Z,66.10
2019-03-13T14:05:34.779Z,66.31
2019-03-13T14:08:09.742Z,66.05
2019-03-13T14:10:43.673Z,66.11
2019-03-13T14:13:18.563Z,66.49
2019-03-13T14:15:55.494Z,66.77
2019-03-13T14:18:29.598Z,69.17
2019-03-13T14:21:03.499Z,69.22
2019-03-13T14:23:37.339Z,70.93
2019-03-13T14:26:11.142Z,70.56
2019-03-13T14:28:45.070Z,69.41
2019-03-13T14:31:18.728Z,71.08
2019-03-13T14:33:52.692Z,71.07
2019-03-13T14:36:26.612Z,71.18
2019-03-13T14:39:00.528Z,71.26
2019-03-13T14:41:34.378Z,71.97
2019-03-13T14:44:08.150Z,71.82
2019-03-13T14:46:43.790Z,71.97
2019-03-13T14:49:19.443Z,72.79
2019-03-13T14:51:53.511Z,72.15
2019-03-13T14:54:27.215Z,73.61
2019-03-13T14:57:01.247Z,73.62
2019-03-13T14:59:34.973Z,75.19
2019-03-13T15:02:10.737Z,76.09
2019-03-13T15:04:44.656Z,75.73
2019-03-13T15:07:19.674Z,76.50
2019-03-13T15:09:53.418Z,76.85
2019-03-13T15:12:27.871Z,77.41
2019-03-13T15:15:01.621Z,77.89
2019-03-13T15:17:36.749Z,78.66
2019-03-13T15:20:15.660Z,79.00
2019-03-13T15:22:49.414Z,79.47
2019-03-13T15:25:23.355Z,78.31
2019-03-13T15:27:57.629Z,77.90
2019-03-13T15:30:31.621Z,78.04
2019-03-13T15:33:05.720Z,78.21
2019-03-13T15:35:43.329Z,77.98
2019-03-13T15:38:18.359Z,77.88
2019-03-13T15:40:53.617Z,78.26
2019-03-13T15:43:28.735Z,77.83
2019-03-13T15:46:02.860Z,77.66
2019-03-13T15:48:36.652Z,77.31
2019-03-13T15:51:12.975Z,77.62
2019-03-13T15:53:48.247Z,77.71
2019-03-13T15:56:23.125Z,77.45
2019-03-13T15:58:57.364Z,77.56
2019-03-13T16:01:31.233Z,76.99
2019-03-13T16:04:06.779Z,76.71
2019-03-13T16:06:40.659Z,76.27
2019-03-13T16:09:14.594Z,76.46
2019-03-13T16:11:49.177Z,76.95
2019-03-13T16:14:23.158Z,76.72
2019-03-13T16:16:59.387Z,75.96
2019-03-13T16:19:33.572Z,75.60
2019-03-13T16:22:08.881Z,75.63
2019-03-13T16:24:43.280Z,75.94
2019-03-13T16:27:17.500Z,76.06
2019-03-13T16:29:52.939Z,76.12
2019-03-13T16:32:26.973Z,76.14
2019-03-13T16:35:00.984Z,76.63
2019-03-13T16:37:34.892Z,76.16
2019-03-13T16:40:10.898Z,76.44
2019-03-13T16:42:47.413Z,76.17
2019-03-13T16:45:22.936Z,76.33
2019-03-13T16:47:56.984Z,76.64
2019-03-13T16:50:32.523Z,76.80
2019-03-13T16:53:08.027Z,76.84
2019-03-13T16:55:41.806Z,77.09
2019-03-13T16:58:15.895Z,77.75
2019-03-13T17:00:50.767Z,77.86
2019-03-13T17:03:24.827Z,78.21
2019-03-13T17:05:58.953Z,78.94
2019-03-13T17:08:33.973Z,79.29
2019-03-13T17:11:09.332Z,79.42
2019-03-13T17:13:44.853Z,80.04
2019-03-13T17:16:19.967Z,80.91
2019-03-13T17:18:53.704Z,81.34
2019-03-13T17:21:27.530Z,81.60
2019-03-13T17:24:03.362Z,82.18
2019-03-13T17:26:37.117Z,82.80
2019-03-13T17:29:12.732Z,83.31
2019-03-13T17:31:46.751Z,83.70
2019-03-13T17:34:20.499Z,84.37
2019-03-13T17:36:55.444Z,84.87
2019-03-13T17:39:29.381Z,84.97
2019-03-13T17:42:03.263Z,85.04
2019-03-13T17:44:37.244Z,85.13
2019-03-13T17:47:10.955Z,85.43
2019-03-13T17:49:44.734Z,84.94
2019-03-13T17:52:20.290Z,84.57
2019-03-13T17:54:53.926Z,84.32
2019-03-13T17:57:27.736Z,84.34
2019-03-13T18:00:02.629Z,84.27
2019-03-13T18:02:36.831Z,84.48
2019-03-13T18:05:10.943Z,85.06
2019-03-13T18:07:44.896Z,85.42
2019-03-13T18:10:19.868Z,85.73
2019-03-13T18:12:55.766Z,85.56
2019-03-13T18:15:29.642Z,85.82
2019-03-13T18:18:04.858Z,85.77
2019-03-13T18:20:40.407Z,85.70
2019-03-13T18:23:14.603Z,85.58
2019-03-13T18:25:49.714Z,85.57
2019-03-13T18:28:23.718Z,85.40
2019-03-13T18:30:57.890Z,85.96
2019-03-13T18:33:35.845Z,86.56
2019-03-13T18:36:13.955Z,86.56
2019-03-13T18:38:50.427Z,86.52
2019-03-13T18:41:24.702Z,86.96
2019-03-13T18:43:59.351Z,87.79
2019-03-13T18:46:33.106Z,88.06
2019-03-13T18:49:06.945Z,88.45
2019-03-13T18:51:40.755Z,88.77
2019-03-13T18:54:14.572Z,88.43
2019-03-13T18:56:48.628Z,88.32
2019-03-13T18:59:23.777Z,88.14
2019-03-13T19:01:59.434Z,87.58
2019-03-13T19:04:36.248Z,86.99
2019-03-13T19:07:12.547Z,87.13
2019-03-13T19:09:46.922Z,87.42
2019-03-13T19:12:20.959Z,87.57
2019-03-13T19:14:59.493Z,87.63
2019-03-13T19:17:33.616Z,88.05
2019-03-13T19:20:11.761Z,88.71
2019-03-13T19:22:44.795Z,88.50
2019-03-13T19:25:20.816Z,88.81
2019-03-13T19:27:54.880Z,89.13
2019-03-13T19:30:30.581Z,89.46
2019-03-13T19:33:05.073Z,89.62
2019-03-13T19:35:40.036Z,89.27
2019-03-13T19:38:14.051Z,89.00
2019-03-13T19:40:48.848Z,89.23
2019-03-13T19:43:24.663Z,89.26
2019-03-13T19:45:59.524Z,89.26
2019-03-13T19:48:33.899Z,89.14
2019-03-13T19:51:08.354Z,89.12
2019-03-13T19:53:44.531Z,89.26
2019-03-13T19:56:21.725Z,89.17
2019-03-13T19:58:57.747Z,88.83
2019-03-13T20:01:33.813Z,88.64
2019-03-13T20:04:09.378Z,88.69
2019-03-13T20:06:43.590Z,88.41
2019-03-13T20:09:17.758Z,88.02
2019-03-13T20:11:52.011Z,87.57
2019-03-13T20:14:27.353Z,87.53
2019-03-13T20:17:01.228Z,87.46
2019-03-13T20:19:35.055Z,86.98
2019-03-13T20:22:12.310Z,87.18
2019-03-13T20:24:47.499Z,86.19
2019-03-13T20:27:21.996Z,86.42
2019-03-13T20:29:57.278Z,86.36
2019-03-13T20:32:33.091Z,86.25
2019-03-13T20:35:07.751Z,86.30
2019-03-13T20:37:41.696Z,86.12
2019-03-13T20:40:19.573Z,85.92
2019-03-13T20:42:53.315Z,85.43
2019-03-13T20:45:27.884Z,85.11
2019-03-13T20:48:03.475Z,84.54
2019-03-13T20:50:38.228Z,84.64
2019-03-13T20:53:12.766Z,84.71
2019-03-13T20:55:46.690Z,84.24
2019-03-13T20:58:21.073Z,84.40
2019-03-13T21:00:56.356Z,84.08
2019-03-13T21:03:31.620Z,83.63
2019-03-13T21:06:05.888Z,84.21
2019-03-13T21:08:40.858Z,84.03
2019-03-13T21:11:15.659Z,84.16
2019-03-13T21:13:49.580Z,84.66
2019-03-13T21:16:24.652Z,84.70
2019-03-13T21:18:58.966Z,84.68
2019-03-13T21:21:33.359Z,84.39
2019-03-13T21:24:07.436Z,85.40
2019-03-13T21:26:42.095Z,86.14
2019-03-13T21:29:15.833Z,86.43
2019-03-13T21:31:49.895Z,86.49
2019-03-13T21:34:24.756Z,86.74
2019-03-13T21:36:59.700Z,86.21
2019-03-13T21:39:33.875Z,85.82
2019-03-13T21:42:07.776Z,84.34
2019-03-13T21:44:43.110Z,83.77
2019-03-13T21:47:16.770Z,83.52
2019-03-13T21:49:50.771Z,83.87
2019-03-13T21:52:26.356Z,83.49
2019-03-13T21:55:00.489Z,83.72
2019-03-13T21:57:34.807Z,83.67
2019-03-13T22:00:21.713Z,83.98
2019-03-13T22:02:55.950Z,83.95
2019-03-13T22:05:31.232Z,84.29
2019-03-13T22:08:05.278Z,84.37
2019-03-13T22:10:39.330Z,84.18
2019-03-13T22:13:13.273Z,84.57
2019-03-13T22:15:47.093Z,83.98
2019-03-13T22:18:21.095Z,83.91
2019-03-13T22:20:55.071Z,84.01
2019-03-13T22:23:30.757Z,84.43
2019-03-13T22:26:04.480Z,84.13
2019-03-13T22:28:38.240Z,84.36
2019-03-13T22:31:12.004Z,84.35
2019-03-13T22:33:46.111Z,84.14
2019-03-13T22:36:19.840Z,84.04
2019-03-13T22:38:53.941Z,84.30
2019-03-13T22:41:27.549Z,84.02
2019-03-13T22:44:01.995Z,84.88
2019-03-13T22:46:36.969Z,85.42
2019-03-13T22:49:10.744Z,85.64
2019-03-13T22:51:44.539Z,85.53
2019-03-13T22:54:20.252Z,86.02
2019-03-13T22:56:55.622Z,86.92
2019-03-13T22:59:29.386Z,87.16
2019-03-13T23:02:03.333Z,87.55
2019-03-13T23:04:38.664Z,88.05
2019-03-13T23:07:12.380Z,88.23
2019-03-13T23:09:46.235Z,88.68
2019-03-13T23:12:20.309Z,89.08
2019-03-13T23:14:54.454Z,89.22
2019-03-13T23:17:28.190Z,89.48
2019-03-13T23:20:02.056Z,88.99
2019-03-13T23:22:37.851Z,89.22
2019-03-13T23:25:11.568Z,88.69
2019-03-13T23:27:45.312Z,88.13
2019-03-13T23:30:20.586Z,87.58
2019-03-13T23:32:54.287Z,87.59
2019-03-13T23:35:28.187Z,87.48
2019-03-13T23:38:02.057Z,87.79
2019-03-13T23:40:35.926Z,88.05
2019-03-13T23:43:09.696Z,88.08
2019-03-13T23:45:45.178Z,87.72
2019-03-13T23:48:20.344Z,87.24
2019-03-13T23:50:54.227Z,86.79
2019-03-13T23:53:27.950Z,87.29
2019-03-13T23:56:02.769Z,86.80
2019-03-13T23:58:36.533Z,87.08
